Terminal Aerodrome Forecast
Issued by NWS

Home | Current Version | Previous Version | Text Only | Print | Product List | Glossary On
Versions: 1 2 3 4 5 6 7 8 9 10 11 12 13 14 15 16 17 18 19 20 21 22 23
000
FTUS41 KRNK 301736
TAFBCB
TAF
KBCB 301736Z 3018/0118 11007KT 6SM -DZ BR OVC007
     FM302300 13006KT 4SM -RA BR OVC006
     FM010300 12006KT 3SM -RA BR OVC004
     FM011200 15005KT 4SM -RA BR OVC007
     FM011600 19006KT P6SM -SHRA OVC011=

USA.gov is the U.S. government's official web portal to all federal, state and local government web resources and services.